sensor_id;sensor_type;location;lat;lon;timestamp;pressure;altitude;pressure_sealevel;temperature;humidity
71361;BME280;59166;48.908;1.870;2023-04-29T00:00:32;100448.84;;;11.71;100.00
71361;BME280;59166;48.908;1.870;2023-04-29T00:05:34;100450.44;;;11.67;100.00
71361;BME280;59166;48.908;1.870;2023-04-29T00:10:35;100441.16;;;11.48;100.00
71361;BME280;59166;48.908;1.870;2023-04-29T00:15:35;100434.53;;;11.29;100.00
71361;BME280;59166;48.908;1.870;2023-04-29T00:20:38;100436.38;;;11.18;100.00
71361;BME280;59166;48.908;1.870;2023-04-29T00:25:39;100427.06;;;10.99;100.00
71361;BME280;59166;48.908;1.870;2023-04-29T00:30:44;100435.69;;;10.96;100.00
71361;BME280;59166;48.908;1.870;2023-04-29T00:35:46;100425.94;;;10.95;100.00
71361;BME280;59166;48.908;1.870;2023-04-29T00:40:47;100429.13;;;10.87;100.00
71361;BME280;59166;48.908;1.870;2023-04-29T00:45:48;100430.16;;;10.81;100.00
71361;BME280;59166;48.908;1.870;2023-04-29T00:50:51;100426.38;;;10.82;100.00
71361;BME280;59166;48.908;1.870;2023-04-29T00:55:52;100428.97;;;10.72;100.00
71361;BME280;59166;48.908;1.870;2023-04-29T01:00:53;100421.38;;;10.69;100.00
71361;BME280;59166;48.908;1.870;2023-04-29T01:11:15;100418.81;;;10.52;100.00
71361;BME280;59166;48.908;1.870;2023-04-29T01:16:22;100413.63;;;10.46;100.00
71361;BME280;59166;48.908;1.870;2023-04-29T01:21:26;100411.97;;;10.40;100.00
71361;BME280;59166;48.908;1.870;2023-04-29T01:26:29;100415.63;;;10.28;100.00
71361;BME280;59166;48.908;1.870;2023-04-29T01:31:40;100416.69;;;10.27;100.00
71361;BME280;59166;48.908;1.870;2023-04-29T01:36:47;100419.91;;;10.24;100.00
71361;BME280;59166;48.908;1.870;2023-04-29T01:41:56;100414.72;;;10.18;100.00
71361;BME280;59166;48.908;1.870;2023-04-29T01:47:00;100417.69;;;10.16;100.00
71361;BME280;59166;48.908;1.870;2023-04-29T01:52:02;100416.78;;;10.11;100.00
71361;BME280;59166;48.908;1.870;2023-04-29T01:57:04;100413.78;;;10.07;100.00
71361;BME280;59166;48.908;1.870;2023-04-29T02:02:05;100403.50;;;10.04;100.00
71361;BME280;59166;48.908;1.870;2023-04-29T02:07:06;100408.56;;;9.96;100.00
71361;BME280;59166;48.908;1.870;2023-04-29T02:12:08;100408.78;;;9.94;100.00
71361;BME280;59166;48.908;1.870;2023-04-29T02:17:09;100415.72;;;9.85;100.00
71361;BME280;59166;48.908;1.870;2023-04-29T02:22:10;100412.63;;;9.76;100.00
71361;BME280;59166;48.908;1.870;2023-04-29T02:27:12;100424.38;;;9.65;100.00
71361;BME280;59166;48.908;1.870;2023-04-29T02:32:13;100429.84;;;9.70;100.00
71361;BME280;59166;48.908;1.870;2023-04-29T02:37:13;100416.84;;;9.67;100.00
71361;BME280;59166;48.908;1.870;2023-04-29T02:42:16;100423.00;;;9.63;100.00
71361;BME280;59166;48.908;1.870;2023-04-29T02:47:17;100430.22;;;9.57;100.00
71361;BME280;59166;48.908;1.870;2023-04-29T02:52:18;100427.63;;;9.46;100.00
71361;BME280;59166;48.908;1.870;2023-04-29T02:57:20;100432.41;;;9.39;100.00
71361;BME280;59166;48.908;1.870;2023-04-29T03:02:21;100435.03;;;9.33;100.00
71361;BME280;59166;48.908;1.870;2023-04-29T03:07:21;100439.72;;;9.43;100.00
71361;BME280;59166;48.908;1.870;2023-04-29T03:12:24;100444.69;;;9.51;100.00
71361;BME280;59166;48.908;1.870;2023-04-29T03:17:24;100435.97;;;9.66;100.00
71361;BME280;59166;48.908;1.870;2023-04-29T03:22:25;100445.91;;;9.82;100.00
71361;BME280;59166;48.908;1.870;2023-04-29T03:27:27;100442.75;;;9.90;100.00
71361;BME280;59166;48.908;1.870;2023-04-29T03:32:28;100449.28;;;9.94;100.00
71361;BME280;59166;48.908;1.870;2023-04-29T03:37:29;100449.81;;;9.96;100.00
71361;BME280;59166;48.908;1.870;2023-04-29T03:42:31;100450.13;;;10.00;100.00
71361;BME280;59166;48.908;1.870;2023-04-29T03:47:32;100453.97;;;10.04;100.00
71361;BME280;59166;48.908;1.870;2023-04-29T03:52:33;100456.13;;;10.02;100.00
71361;BME280;59166;48.908;1.870;2023-04-29T03:57:35;100470.97;;;10.04;100.00
71361;BME280;59166;48.908;1.870;2023-04-29T04:02:36;100471.78;;;10.05;100.00
71361;BME280;59166;48.908;1.870;2023-04-29T04:07:37;100477.44;;;10.03;100.00
71361;BME280;59166;48.908;1.870;2023-04-29T04:12:39;100481.16;;;9.97;100.00
71361;BME280;59166;48.908;1.870;2023-04-29T04:17:40;100483.34;;;10.00;100.00
71361;BME280;59166;48.908;1.870;2023-04-29T04:22:41;100481.16;;;9.97;100.00
71361;BME280;59166;48.908;1.870;2023-04-29T04:27:43;100483.91;;;10.02;100.00
71361;BME280;59166;48.908;1.870;2023-04-29T04:32:44;100494.09;;;9.95;100.00
71361;BME280;59166;48.908;1.870;2023-04-29T04:37:45;100488.69;;;9.95;100.00
71361;BME280;59166;48.908;1.870;2023-04-29T04:42:47;100500.00;;;9.92;100.00
71361;BME280;59166;48.908;1.870;2023-04-29T04:47:48;100505.13;;;9.94;100.00
71361;BME280;59166;48.908;1.870;2023-04-29T04:52:49;100509.69;;;9.93;100.00
71361;BME280;59166;48.908;1.870;2023-04-29T04:57:51;100514.78;;;9.90;100.00
71361;BME280;59166;48.908;1.870;2023-04-29T05:02:52;100519.06;;;9.86;100.00
71361;BME280;59166;48.908;1.870;2023-04-29T05:07:53;100527.41;;;9.84;100.00
71361;BME280;59166;48.908;1.870;2023-04-29T05:12:55;100533.94;;;9.88;100.00
71361;BME280;59166;48.908;1.870;2023-04-29T05:17:56;100539.66;;;9.92;100.00
71361;BME280;59166;48.908;1.870;2023-04-29T05:22:57;100553.69;;;9.94;100.00
71361;BME280;59166;48.908;1.870;2023-04-29T05:27:59;100558.25;;;9.93;100.00
71361;BME280;59166;48.908;1.870;2023-04-29T05:33:00;100567.81;;;10.01;100.00
71361;BME280;59166;48.908;1.870;2023-04-29T05:38:00;100581.00;;;9.97;100.00
71361;BME280;59166;48.908;1.870;2023-04-29T05:43:03;100583.28;;;10.05;100.00
71361;BME280;59166;48.908;1.870;2023-04-29T05:48:04;100589.19;;;10.02;100.00
71361;BME280;59166;48.908;1.870;2023-04-29T05:53:05;100595.75;;;10.11;100.00
71361;BME280;59166;48.908;1.870;2023-04-29T05:58:07;100588.50;;;10.12;100.00
71361;BME280;59166;48.908;1.870;2023-04-29T06:03:08;100595.56;;;10.18;100.00
71361;BME280;59166;48.908;1.870;2023-04-29T06:08:09;100590.19;;;10.18;100.00
71361;BME280;59166;48.908;1.870;2023-04-29T06:13:11;100598.28;;;10.18;100.00
71361;BME280;59166;48.908;1.870;2023-04-29T06:18:12;100594.84;;;10.22;100.00
71361;BME280;59166;48.908;1.870;2023-04-29T06:23:13;100602.13;;;10.22;100.00
71361;BME280;59166;48.908;1.870;2023-04-29T06:28:15;100604.63;;;10.28;100.00
71361;BME280;59166;48.908;1.870;2023-04-29T06:33:16;100618.69;;;10.30;100.00
71361;BME280;59166;48.908;1.870;2023-04-29T06:38:16;100618.94;;;10.29;100.00
71361;BME280;59166;48.908;1.870;2023-04-29T06:43:19;100625.50;;;10.33;100.00
71361;BME280;59166;48.908;1.870;2023-04-29T06:48:19;100623.72;;;10.44;100.00
71361;BME280;59166;48.908;1.870;2023-04-29T06:53:21;100624.28;;;10.46;100.00
71361;BME280;59166;48.908;1.870;2023-04-29T06:58:23;100626.81;;;10.52;100.00
71361;BME280;59166;48.908;1.870;2023-04-29T07:03:24;100642.13;;;10.47;100.00
71361;BME280;59166;48.908;1.870;2023-04-29T07:08:25;100638.47;;;10.58;100.00
71361;BME280;59166;48.908;1.870;2023-04-29T07:13:27;100644.50;;;10.65;100.00
71361;BME280;59166;48.908;1.870;2023-04-29T07:18:28;100649.34;;;10.63;100.00
71361;BME280;59166;48.908;1.870;2023-04-29T07:23:28;100656.75;;;10.72;100.00
71361;BME280;59166;48.908;1.870;2023-04-29T07:28:31;100651.06;;;10.91;100.00
71361;BME280;59166;48.908;1.870;2023-04-29T07:33:32;100653.56;;;10.97;100.00
71361;BME280;59166;48.908;1.870;2023-04-29T07:38:33;100665.97;;;10.98;100.00
71361;BME280;59166;48.908;1.870;2023-04-29T07:43:35;100663.09;;;11.05;100.00
71361;BME280;59166;48.908;1.870;2023-04-29T07:48:36;100660.25;;;11.16;100.00
71361;BME280;59166;48.908;1.870;2023-04-29T07:53:37;100671.38;;;11.20;100.00
71361;BME280;59166;48.908;1.870;2023-04-29T07:58:39;100678.22;;;11.27;100.00
71361;BME280;59166;48.908;1.870;2023-04-29T08:03:40;100677.41;;;11.32;100.00
71361;BME280;59166;48.908;1.870;2023-04-29T08:08:41;100673.84;;;11.26;100.00
71361;BME280;59166;48.908;1.870;2023-04-29T08:13:44;100674.63;;;11.22;100.00
71361;BME280;59166;48.908;1.870;2023-04-29T08:18:45;100683.56;;;11.22;100.00
71361;BME280;59166;48.908;1.870;2023-04-29T08:23:46;100688.72;;;11.24;100.00
71361;BME280;59166;48.908;1.870;2023-04-29T08:28:48;100693.63;;;11.27;100.00
71361;BME280;59166;48.908;1.870;2023-04-29T08:33:49;100688.13;;;11.22;100.00
71361;BME280;59166;48.908;1.870;2023-04-29T08:38:50;100690.28;;;11.47;100.00
71361;BME280;59166;48.908;1.870;2023-04-29T08:43:52;100691.72;;;11.54;100.00
71361;BME280;59166;48.908;1.870;2023-04-29T08:48:54;100697.00;;;11.71;100.00
71361;BME280;59166;48.908;1.870;2023-04-29T08:53:56;100696.47;;;11.74;100.00
71361;BME280;59166;48.908;1.870;2023-04-29T08:59:00;100693.41;;;11.65;100.00
71361;BME280;59166;48.908;1.870;2023-04-29T09:04:08;100704.16;;;11.87;100.00
71361;BME280;59166;48.908;1.870;2023-04-29T09:09:12;100700.25;;;12.05;100.00
71361;BME280;59166;48.908;1.870;2023-04-29T09:14:15;100710.63;;;12.18;100.00
71361;BME280;59166;48.908;1.870;2023-04-29T09:19:28;100713.72;;;12.36;100.00
71361;BME280;59166;48.908;1.870;2023-04-29T09:24:30;100716.44;;;12.36;100.00
71361;BME280;59166;48.908;1.870;2023-04-29T09:29:33;100722.03;;;12.25;100.00
71361;BME280;59166;48.908;1.870;2023-04-29T09:34:34;100727.03;;;12.38;100.00
71361;BME280;59166;48.908;1.870;2023-04-29T09:39:38;100718.13;;;12.43;100.00
71361;BME280;59166;48.908;1.870;2023-04-29T09:44:41;100716.06;;;12.65;100.00
71361;BME280;59166;48.908;1.870;2023-04-29T09:49:43;100718.03;;;12.84;100.00
71361;BME280;59166;48.908;1.870;2023-04-29T09:54:43;100725.13;;;12.90;100.00
71361;BME280;59166;48.908;1.870;2023-04-29T09:59:46;100729.78;;;13.00;100.00
71361;BME280;59166;48.908;1.870;2023-04-29T10:04:50;100730.34;;;13.12;100.00
71361;BME280;59166;48.908;1.870;2023-04-29T10:09:53;100729.34;;;13.33;100.00
71361;BME280;59166;48.908;1.870;2023-04-29T10:15:17;100729.94;;;13.61;97.14
71361;BME280;59166;48.908;1.870;2023-04-29T10:20:22;100727.78;;;13.68;94.75
71361;BME280;59166;48.908;1.870;2023-04-29T10:25:24;100730.22;;;13.64;93.95
71361;BME280;59166;48.908;1.870;2023-04-29T10:30:27;100738.31;;;13.59;95.21
71361;BME280;59166;48.908;1.870;2023-04-29T10:35:28;100730.78;;;13.76;92.29
71361;BME280;59166;48.908;1.870;2023-04-29T10:40:34;100735.38;;;14.16;90.59
71361;BME280;59166;48.908;1.870;2023-04-29T10:45:37;100739.97;;;14.26;88.44
71361;BME280;59166;48.908;1.870;2023-04-29T10:51:03;100741.91;;;14.05;88.15
71361;BME280;59166;48.908;1.870;2023-04-29T10:56:07;100741.38;;;14.08;88.59
71361;BME280;59166;48.908;1.870;2023-04-29T11:01:14;100740.28;;;14.14;88.91
71361;BME280;59166;48.908;1.870;2023-04-29T11:06:15;100750.59;;;14.27;88.67
71361;BME280;59166;48.908;1.870;2023-04-29T11:11:16;100743.00;;;14.24;86.67
71361;BME280;59166;48.908;1.870;2023-04-29T11:16:25;100752.78;;;14.05;87.68
71361;BME280;59166;48.908;1.870;2023-04-29T11:21:26;100758.22;;;14.10;86.85
71361;BME280;59166;48.908;1.870;2023-04-29T11:26:27;100744.34;;;14.27;86.45
71361;BME280;59166;48.908;1.870;2023-04-29T11:31:31;100749.50;;;14.33;86.57
71361;BME280;59166;48.908;1.870;2023-04-29T11:36:33;100751.13;;;14.34;86.71
71361;BME280;59166;48.908;1.870;2023-04-29T11:41:34;100751.66;;;14.47;84.05
71361;BME280;59166;48.908;1.870;2023-04-29T11:46:36;100750.22;;;14.74;83.26
71361;BME280;59166;48.908;1.870;2023-04-29T11:51:37;100746.66;;;14.89;80.87
71361;BME280;59166;48.908;1.870;2023-04-29T11:56:38;100741.09;;;15.19;85.28
71361;BME280;59166;48.908;1.870;2023-04-29T12:01:40;100737.72;;;15.37;77.79
71361;BME280;59166;48.908;1.870;2023-04-29T12:06:41;100740.09;;;15.49;76.69
71361;BME280;59166;48.908;1.870;2023-04-29T12:11:42;100744.16;;;15.57;75.89
71361;BME280;59166;48.908;1.870;2023-04-29T12:16:45;100732.53;;;15.80;73.36
71361;BME280;59166;48.908;1.870;2023-04-29T12:21:48;100723.88;;;15.73;70.90
71361;BME280;59166;48.908;1.870;2023-04-29T12:26:49;100726.78;;;15.81;70.84
71361;BME280;59166;48.908;1.870;2023-04-29T12:31:51;100723.94;;;16.30;75.64
71361;BME280;59166;48.908;1.870;2023-04-29T12:36:54;100730.81;;;16.52;69.64
71361;BME280;59166;48.908;1.870;2023-04-29T12:41:57;100721.75;;;16.80;71.60
71361;BME280;59166;48.908;1.870;2023-04-29T12:47:06;100729.63;;;17.05;69.65
71361;BME280;59166;48.908;1.870;2023-04-29T12:52:07;100729.41;;;17.02;67.50
71361;BME280;59166;48.908;1.870;2023-04-29T12:57:08;100737.38;;;17.40;67.48
71361;BME280;59166;48.908;1.870;2023-04-29T13:02:11;100724.31;;;17.37;64.31
71361;BME280;59166;48.908;1.870;2023-04-29T13:07:11;100725.41;;;17.36;65.52
71361;BME280;59166;48.908;1.870;2023-04-29T13:12:12;100724.97;;;17.29;65.33
71361;BME280;59166;48.908;1.870;2023-04-29T13:17:14;100724.91;;;16.92;66.54
71361;BME280;59166;48.908;1.870;2023-04-29T13:22:15;100728.00;;;16.33;70.90
71361;BME280;59166;48.908;1.870;2023-04-29T13:27:16;100718.88;;;16.19;72.03
71361;BME280;59166;48.908;1.870;2023-04-29T13:32:18;100727.19;;;16.32;76.62
71361;BME280;59166;48.908;1.870;2023-04-29T13:37:19;100719.44;;;16.44;72.63
71361;BME280;59166;48.908;1.870;2023-04-29T13:42:20;100713.50;;;17.09;71.84
71361;BME280;59166;48.908;1.870;2023-04-29T13:47:22;100717.44;;;17.21;66.64
71361;BME280;59166;48.908;1.870;2023-04-29T13:52:23;100709.56;;;17.38;65.77
71361;BME280;59166;48.908;1.870;2023-04-29T13:57:24;100699.16;;;16.98;65.65
71361;BME280;59166;48.908;1.870;2023-04-29T14:02:26;100698.75;;;17.98;66.42
71361;BME280;59166;48.908;1.870;2023-04-29T14:07:27;100707.97;;;18.34;64.66
71361;BME280;59166;48.908;1.870;2023-04-29T14:12:28;100705.06;;;18.12;60.17
71361;BME280;59166;48.908;1.870;2023-04-29T14:17:30;100706.38;;;18.15;64.78
71361;BME280;59166;48.908;1.870;2023-04-29T14:22:31;100695.13;;;18.76;61.00
71361;BME280;59166;48.908;1.870;2023-04-29T14:27:32;100701.84;;;18.10;63.55
71361;BME280;59166;48.908;1.870;2023-04-29T14:32:34;100697.56;;;18.36;62.48
71361;BME280;59166;48.908;1.870;2023-04-29T14:37:35;100691.34;;;18.17;60.36
71361;BME280;59166;48.908;1.870;2023-04-29T14:42:36;100683.69;;;17.68;65.47
71361;BME280;59166;48.908;1.870;2023-04-29T14:47:38;100687.09;;;17.41;62.03
71361;BME280;59166;48.908;1.870;2023-04-29T14:52:39;100695.47;;;17.82;64.35
71361;BME280;59166;48.908;1.870;2023-04-29T14:57:40;100697.09;;;18.16;60.87
71361;BME280;59166;48.908;1.870;2023-04-29T15:02:42;100694.91;;;17.99;61.21
71361;BME280;59166;48.908;1.870;2023-04-29T15:07:42;100687.63;;;18.08;62.29
71361;BME280;59166;48.908;1.870;2023-04-29T15:12:43;100687.13;;;17.74;61.62
71361;BME280;59166;48.908;1.870;2023-04-29T15:17:45;100690.06;;;17.77;62.85
71361;BME280;59166;48.908;1.870;2023-04-29T15:22:53;100677.19;;;18.42;62.11
71361;BME280;59166;48.908;1.870;2023-04-29T15:28:05;100680.53;;;18.39;59.65
71361;BME280;59166;48.908;1.870;2023-04-29T15:33:08;100684.94;;;17.76;61.70
71361;BME280;59166;48.908;1.870;2023-04-29T15:38:09;100683.19;;;18.12;61.29
71361;BME280;59166;48.908;1.870;2023-04-29T15:43:10;100677.38;;;18.32;59.76
71361;BME280;59166;48.908;1.870;2023-04-29T15:48:12;100678.63;;;18.40;62.50
71361;BME280;59166;48.908;1.870;2023-04-29T15:53:13;100672.22;;;18.31;62.15
71361;BME280;59166;48.908;1.870;2023-04-29T15:58:14;100683.13;;;17.85;59.12
71361;BME280;59166;48.908;1.870;2023-04-29T16:03:16;100682.66;;;17.64;61.16
71361;BME280;59166;48.908;1.870;2023-04-29T16:08:17;100683.38;;;18.02;59.29
71361;BME280;59166;48.908;1.870;2023-04-29T16:13:17;100686.22;;;18.11;60.55
71361;BME280;59166;48.908;1.870;2023-04-29T16:18:20;100680.91;;;17.87;59.03
71361;BME280;59166;48.908;1.870;2023-04-29T16:23:20;100678.97;;;17.36;62.18
71361;BME280;59166;48.908;1.870;2023-04-29T16:28:21;100686.53;;;17.77;61.39
71361;BME280;59166;48.908;1.870;2023-04-29T16:33:24;100692.53;;;17.79;60.58
71361;BME280;59166;48.908;1.870;2023-04-29T16:38:25;100697.63;;;17.67;61.20
71361;BME280;59166;48.908;1.870;2023-04-29T16:43:26;100696.19;;;17.18;60.91
71361;BME280;59166;48.908;1.870;2023-04-29T16:48:28;100686.06;;;16.53;64.54
71361;BME280;59166;48.908;1.870;2023-04-29T16:53:29;100696.97;;;15.95;66.09
71361;BME280;59166;48.908;1.870;2023-04-29T16:58:30;100699.88;;;16.37;65.40
71361;BME280;59166;48.908;1.870;2023-04-29T17:03:32;100698.97;;;16.18;65.57
71361;BME280;59166;48.908;1.870;2023-04-29T17:08:34;100701.41;;;16.20;65.90
71361;BME280;59166;48.908;1.870;2023-04-29T17:13:34;100702.09;;;16.02;66.74
71361;BME280;59166;48.908;1.870;2023-04-29T17:18:37;100699.22;;;15.88;66.07
71361;BME280;59166;48.908;1.870;2023-04-29T17:23:37;100700.09;;;15.50;66.84
71361;BME280;59166;48.908;1.870;2023-04-29T17:28:38;100700.34;;;15.04;68.34
71361;BME280;59166;48.908;1.870;2023-04-29T17:33:43;100706.25;;;15.21;68.37
71361;BME280;59166;48.908;1.870;2023-04-29T17:38:44;100707.19;;;15.46;67.86
71361;BME280;59166;48.908;1.870;2023-04-29T17:43:45;100706.50;;;15.25;67.24
71361;BME280;59166;48.908;1.870;2023-04-29T17:48:47;100703.00;;;15.14;67.84
71361;BME280;59166;48.908;1.870;2023-04-29T17:53:48;100711.53;;;15.03;68.74
71361;BME280;59166;48.908;1.870;2023-04-29T17:58:49;100711.28;;;14.84;69.27
71361;BME280;59166;48.908;1.870;2023-04-29T18:03:51;100714.09;;;14.69;70.27
71361;BME280;59166;48.908;1.870;2023-04-29T18:08:52;100716.34;;;14.26;71.42
71361;BME280;59166;48.908;1.870;2023-04-29T18:13:53;100714.75;;;13.95;72.49
71361;BME280;59166;48.908;1.870;2023-04-29T18:18:55;100729.97;;;13.76;74.18
71361;BME280;59166;48.908;1.870;2023-04-29T18:23:56;100736.16;;;13.56;75.14
71361;BME280;59166;48.908;1.870;2023-04-29T18:28:57;100747.78;;;13.41;76.02
71361;BME280;59166;48.908;1.870;2023-04-29T18:33:59;100749.66;;;13.31;75.67
71361;BME280;59166;48.908;1.870;2023-04-29T18:39:00;100757.66;;;12.90;75.90
71361;BME280;59166;48.908;1.870;2023-04-29T18:44:00;100749.66;;;12.64;78.24
71361;BME280;59166;48.908;1.870;2023-04-29T18:49:03;100739.88;;;12.58;78.26
71361;BME280;59166;48.908;1.870;2023-04-29T18:54:03;100762.03;;;12.50;79.19
71361;BME280;59166;48.908;1.870;2023-04-29T18:59:04;100771.44;;;12.37;80.21
71361;BME280;59166;48.908;1.870;2023-04-29T19:04:06;100767.66;;;12.06;81.06
71361;BME280;59166;48.908;1.870;2023-04-29T19:09:07;100777.25;;;11.87;82.51
71361;BME280;59166;48.908;1.870;2023-04-29T19:14:08;100785.38;;;11.87;82.22
71361;BME280;59166;48.908;1.870;2023-04-29T19:19:10;100778.72;;;11.73;82.88
71361;BME280;59166;48.908;1.870;2023-04-29T19:24:11;100788.50;;;11.74;82.42
71361;BME280;59166;48.908;1.870;2023-04-29T19:29:12;100790.06;;;11.70;82.68
71361;BME280;59166;48.908;1.870;2023-04-29T19:34:15;100791.44;;;11.72;82.05
71361;BME280;59166;48.908;1.870;2023-04-29T19:39:16;100798.94;;;11.65;82.81
71361;BME280;59166;48.908;1.870;2023-04-29T19:44:16;100809.34;;;11.52;82.67
71361;BME280;59166;48.908;1.870;2023-04-29T19:49:19;100812.72;;;11.37;83.67
71361;BME280;59166;48.908;1.870;2023-04-29T19:54:19;100815.16;;;11.38;83.42
71361;BME280;59166;48.908;1.870;2023-04-29T19:59:23;100833.34;;;11.21;84.34
71361;BME280;59166;48.908;1.870;2023-04-29T20:04:25;100837.56;;;11.12;85.32
71361;BME280;59166;48.908;1.870;2023-04-29T20:09:26;100832.97;;;11.13;85.15
71361;BME280;59166;48.908;1.870;2023-04-29T20:14:27;100840.72;;;11.04;85.26
71361;BME280;59166;48.908;1.870;2023-04-29T20:19:29;100853.78;;;11.12;85.14
71361;BME280;59166;48.908;1.870;2023-04-29T20:24:30;100858.28;;;11.23;84.15
71361;BME280;59166;48.908;1.870;2023-04-29T20:29:31;100856.38;;;11.24;83.61
71361;BME280;59166;48.908;1.870;2023-04-29T20:34:33;100857.81;;;11.31;82.01
71361;BME280;59166;48.908;1.870;2023-04-29T20:39:34;100861.34;;;11.32;84.47
71361;BME280;59166;48.908;1.870;2023-04-29T20:44:35;100868.16;;;11.34;82.47
71361;BME280;59166;48.908;1.870;2023-04-29T20:49:37;100873.06;;;11.38;82.25
71361;BME280;59166;48.908;1.870;2023-04-29T20:54:38;100871.91;;;11.33;82.27
71361;BME280;59166;48.908;1.870;2023-04-29T20:59:39;100872.44;;;11.30;80.97
71361;BME280;59166;48.908;1.870;2023-04-29T21:04:41;100868.03;;;11.24;82.77
71361;BME280;59166;48.908;1.870;2023-04-29T21:09:42;100867.56;;;11.32;82.40
71361;BME280;59166;48.908;1.870;2023-04-29T21:14:42;100868.31;;;11.28;82.27
71361;BME280;59166;48.908;1.870;2023-04-29T21:19:45;100868.91;;;11.30;82.28
71361;BME280;59166;48.908;1.870;2023-04-29T21:24:45;100876.94;;;11.25;83.40
71361;BME280;59166;48.908;1.870;2023-04-29T21:29:46;100869.09;;;11.23;80.78
71361;BME280;59166;48.908;1.870;2023-04-29T21:34:49;100875.22;;;11.19;82.45
71361;BME280;59166;48.908;1.870;2023-04-29T21:39:49;100870.09;;;11.17;81.67
71361;BME280;59166;48.908;1.870;2023-04-29T21:44:50;100877.84;;;11.30;80.38
71361;BME280;59166;48.908;1.870;2023-04-29T21:49:53;100879.00;;;11.18;80.36
71361;BME280;59166;48.908;1.870;2023-04-29T21:54:54;100883.03;;;11.15;81.10
71361;BME280;59166;48.908;1.870;2023-04-29T21:59:55;100882.47;;;11.13;81.97
71361;BME280;59166;48.908;1.870;2023-04-29T22:04:57;100878.63;;;11.09;80.55
71361;BME280;59166;48.908;1.870;2023-04-29T22:09:58;100882.47;;;11.13;79.71
71361;BME280;59166;48.908;1.870;2023-04-29T22:14:59;100881.28;;;11.04;80.56
71361;BME280;59166;48.908;1.870;2023-04-29T22:20:01;100874.78;;;11.05;80.43
71361;BME280;59166;48.908;1.870;2023-04-29T22:25:02;100878.97;;;10.96;85.16
71361;BME280;59166;48.908;1.870;2023-04-29T22:30:04;100878.50;;;10.66;83.12
71361;BME280;59166;48.908;1.870;2023-04-29T22:35:07;100874.59;;;10.57;84.63
71361;BME280;59166;48.908;1.870;2023-04-29T22:40:09;100867.28;;;10.41;86.98
71361;BME280;59166;48.908;1.870;2023-04-29T22:45:10;100855.19;;;10.26;87.99
71361;BME280;59166;48.908;1.870;2023-04-29T22:50:13;100850.06;;;10.13;88.46
71361;BME280;59166;48.908;1.870;2023-04-29T22:55:14;100848.28;;;10.02;89.92
71361;BME280;59166;48.908;1.870;2023-04-29T23:00:15;100840.72;;;9.88;90.11
71361;BME280;59166;48.908;1.870;2023-04-29T23:05:17;100837.88;;;9.66;92.34
71361;BME280;59166;48.908;1.870;2023-04-29T23:10:18;100840.50;;;9.61;93.11
71361;BME280;59166;48.908;1.870;2023-04-29T23:15:19;100838.84;;;9.60;92.57
71361;BME280;59166;48.908;1.870;2023-04-29T23:20:21;100833.13;;;9.56;93.25
71361;BME280;59166;48.908;1.870;2023-04-29T23:25:22;100836.22;;;9.48;94.36
71361;BME280;59166;48.908;1.870;2023-04-29T23:30:22;100832.00;;;9.41;94.90
71361;BME280;59166;48.908;1.870;2023-04-29T23:35:25;100831.09;;;9.35;94.57
71361;BME280;59166;48.908;1.870;2023-04-29T23:40:25;100829.13;;;9.30;95.75
71361;BME280;59166;48.908;1.870;2023-04-29T23:45:26;100823.59;;;9.25;95.82
71361;BME280;59166;48.908;1.870;2023-04-29T23:50:29;100810.25;;;9.19;96.57
71361;BME280;59166;48.908;1.870;2023-04-29T23:55:29;100813.34;;;9.11;97.66
